sensor_id;sensor_type;location;lat;lon;timestamp;P1;durP1;ratioP1;P2;durP2;ratioP2
67049;SDS011;53955;52.442;13.284;2022-12-07T00:01:43;10.63;;;6.70;;
67049;SDS011;53955;52.442;13.284;2022-12-07T00:04:13;11.07;;;6.10;;
67049;SDS011;53955;52.442;13.284;2022-12-07T00:06:42;9.47;;;5.90;;
67049;SDS011;53955;52.442;13.284;2022-12-07T00:09:10;9.53;;;6.07;;
67049;SDS011;53955;52.442;13.284;2022-12-07T00:11:38;12.53;;;6.03;;
67049;SDS011;53955;52.442;13.284;2022-12-07T00:14:05;10.73;;;6.30;;
67049;SDS011;53955;52.442;13.284;2022-12-07T00:16:34;11.97;;;5.83;;
67049;SDS011;53955;52.442;13.284;2022-12-07T00:19:01;10.73;;;6.43;;
67049;SDS011;53955;52.442;13.284;2022-12-07T00:21:30;10.53;;;6.00;;
67049;SDS011;53955;52.442;13.284;2022-12-07T00:23:58;11.90;;;6.03;;
67049;SDS011;53955;52.442;13.284;2022-12-07T00:26:25;10.40;;;5.60;;
67049;SDS011;53955;52.442;13.284;2022-12-07T00:28:54;9.63;;;5.87;;
67049;SDS011;53955;52.442;13.284;2022-12-07T00:31:23;9.97;;;5.10;;
67049;SDS011;53955;52.442;13.284;2022-12-07T00:33:51;10.13;;;5.93;;
67049;SDS011;53955;52.442;13.284;2022-12-07T00:36:18;9.03;;;5.70;;
67049;SDS011;53955;52.442;13.284;2022-12-07T00:38:48;9.67;;;5.60;;
67049;SDS011;53955;52.442;13.284;2022-12-07T00:41:15;9.37;;;5.60;;
67049;SDS011;53955;52.442;13.284;2022-12-07T00:43:43;8.47;;;5.37;;
67049;SDS011;53955;52.442;13.284;2022-12-07T00:46:11;8.03;;;5.00;;
67049;SDS011;53955;52.442;13.284;2022-12-07T00:48:37;9.63;;;5.80;;
67049;SDS011;53955;52.442;13.284;2022-12-07T00:51:05;8.17;;;5.50;;
67049;SDS011;53955;52.442;13.284;2022-12-07T00:53:33;8.83;;;5.33;;
67049;SDS011;53955;52.442;13.284;2022-12-07T00:56:05;8.23;;;4.73;;
67049;SDS011;53955;52.442;13.284;2022-12-07T00:58:32;7.70;;;4.47;;
67049;SDS011;53955;52.442;13.284;2022-12-07T01:13:14;6.33;;;3.93;;
67049;SDS011;53955;52.442;13.284;2022-12-07T01:15:42;7.00;;;4.50;;
67049;SDS011;53955;52.442;13.284;2022-12-07T01:18:09;6.37;;;4.30;;
67049;SDS011;53955;52.442;13.284;2022-12-07T01:20:37;7.77;;;4.60;;
67049;SDS011;53955;52.442;13.284;2022-12-07T01:23:03;6.97;;;4.63;;
67049;SDS011;53955;52.442;13.284;2022-12-07T01:25:30;7.33;;;4.10;;
67049;SDS011;53955;52.442;13.284;2022-12-07T01:27:56;6.77;;;4.13;;
67049;SDS011;53955;52.442;13.284;2022-12-07T01:30:24;7.07;;;4.20;;
67049;SDS011;53955;52.442;13.284;2022-12-07T01:32:51;7.57;;;4.30;;
67049;SDS011;53955;52.442;13.284;2022-12-07T01:35:17;7.97;;;4.30;;
67049;SDS011;53955;52.442;13.284;2022-12-07T01:37:44;8.83;;;4.50;;
67049;SDS011;53955;52.442;13.284;2022-12-07T01:40:11;7.70;;;4.30;;
67049;SDS011;53955;52.442;13.284;2022-12-07T01:42:38;6.50;;;4.17;;
67049;SDS011;53955;52.442;13.284;2022-12-07T01:45:34;8.10;;;4.27;;
67049;SDS011;53955;52.442;13.284;2022-12-07T01:48:04;7.73;;;4.63;;
67049;SDS011;53955;52.442;13.284;2022-12-07T01:50:33;8.60;;;4.17;;
67049;SDS011;53955;52.442;13.284;2022-12-07T01:53:00;8.63;;;4.07;;
67049;SDS011;53955;52.442;13.284;2022-12-07T01:55:30;6.47;;;4.20;;
67049;SDS011;53955;52.442;13.284;2022-12-07T01:57:57;7.30;;;4.40;;
67049;SDS011;53955;52.442;13.284;2022-12-07T02:00:24;7.33;;;4.70;;
67049;SDS011;53955;52.442;13.284;2022-12-07T02:02:53;7.53;;;4.27;;
67049;SDS011;53955;52.442;13.284;2022-12-07T02:05:23;8.00;;;4.50;;
67049;SDS011;53955;52.442;13.284;2022-12-07T02:07:51;9.17;;;4.60;;
67049;SDS011;53955;52.442;13.284;2022-12-07T02:10:21;7.20;;;4.37;;
67049;SDS011;53955;52.442;13.284;2022-12-07T02:12:50;7.53;;;4.47;;
67049;SDS011;53955;52.442;13.284;2022-12-07T02:15:19;8.40;;;5.20;;
67049;SDS011;53955;52.442;13.284;2022-12-07T02:17:49;6.43;;;4.20;;
67049;SDS011;53955;52.442;13.284;2022-12-07T02:20:28;6.93;;;4.10;;
67049;SDS011;53955;52.442;13.284;2022-12-07T02:23:07;6.10;;;4.50;;
67049;SDS011;53955;52.442;13.284;2022-12-07T02:26:00;6.93;;;4.30;;
67049;SDS011;53955;52.442;13.284;2022-12-07T02:28:48;7.40;;;4.50;;
67049;SDS011;53955;52.442;13.284;2022-12-07T02:31:36;6.00;;;4.30;;
67049;SDS011;53955;52.442;13.284;2022-12-07T02:34:05;6.53;;;4.13;;
67049;SDS011;53955;52.442;13.284;2022-12-07T02:36:39;7.07;;;4.40;;
67049;SDS011;53955;52.442;13.284;2022-12-07T02:39:08;5.57;;;4.00;;
67049;SDS011;53955;52.442;13.284;2022-12-07T02:41:42;8.00;;;4.67;;
67049;SDS011;53955;52.442;13.284;2022-12-07T02:44:13;6.97;;;4.37;;
67049;SDS011;53955;52.442;13.284;2022-12-07T02:46:44;6.73;;;4.40;;
67049;SDS011;53955;52.442;13.284;2022-12-07T02:49:16;7.73;;;5.00;;
67049;SDS011;53955;52.442;13.284;2022-12-07T02:51:45;8.63;;;4.73;;
67049;SDS011;53955;52.442;13.284;2022-12-07T02:54:13;8.23;;;4.23;;
67049;SDS011;53955;52.442;13.284;2022-12-07T02:56:43;8.27;;;4.80;;
67049;SDS011;53955;52.442;13.284;2022-12-07T02:59:16;7.00;;;4.17;;
67049;SDS011;53955;52.442;13.284;2022-12-07T03:01:50;7.03;;;4.37;;
67049;SDS011;53955;52.442;13.284;2022-12-07T03:04:31;6.60;;;4.27;;
67049;SDS011;53955;52.442;13.284;2022-12-07T03:07:09;8.90;;;4.47;;
67049;SDS011;53955;52.442;13.284;2022-12-07T03:09:43;7.20;;;4.90;;
67049;SDS011;53955;52.442;13.284;2022-12-07T03:12:18;9.27;;;4.63;;
67049;SDS011;53955;52.442;13.284;2022-12-07T03:14:49;8.27;;;4.63;;
67049;SDS011;53955;52.442;13.284;2022-12-07T03:17:24;6.77;;;4.63;;
67049;SDS011;53955;52.442;13.284;2022-12-07T03:19:53;8.83;;;4.17;;
67049;SDS011;53955;52.442;13.284;2022-12-07T03:22:24;7.93;;;5.07;;
67049;SDS011;53955;52.442;13.284;2022-12-07T03:24:55;7.70;;;4.43;;
67049;SDS011;53955;52.442;13.284;2022-12-07T03:27:26;9.03;;;5.47;;
67049;SDS011;53955;52.442;13.284;2022-12-07T03:29:58;6.67;;;4.80;;
67049;SDS011;53955;52.442;13.284;2022-12-07T03:32:28;8.53;;;4.80;;
67049;SDS011;53955;52.442;13.284;2022-12-07T03:35:00;8.70;;;4.83;;
67049;SDS011;53955;52.442;13.284;2022-12-07T03:37:31;8.03;;;4.43;;
67049;SDS011;53955;52.442;13.284;2022-12-07T03:40:02;9.27;;;5.37;;
67049;SDS011;53955;52.442;13.284;2022-12-07T03:42:32;7.77;;;4.77;;
67049;SDS011;53955;52.442;13.284;2022-12-07T03:45:01;10.00;;;5.30;;
67049;SDS011;53955;52.442;13.284;2022-12-07T03:47:29;9.67;;;5.37;;
67049;SDS011;53955;52.442;13.284;2022-12-07T03:50:00;9.03;;;4.87;;
67049;SDS011;53955;52.442;13.284;2022-12-07T03:52:33;9.47;;;5.40;;
67049;SDS011;53955;52.442;13.284;2022-12-07T03:55:05;9.10;;;5.33;;
67049;SDS011;53955;52.442;13.284;2022-12-07T03:57:37;12.03;;;5.90;;
67049;SDS011;53955;52.442;13.284;2022-12-07T04:00:07;10.20;;;5.07;;
67049;SDS011;53955;52.442;13.284;2022-12-07T04:02:35;10.63;;;5.60;;
67049;SDS011;53955;52.442;13.284;2022-12-07T04:05:02;9.53;;;5.30;;
67049;SDS011;53955;52.442;13.284;2022-12-07T04:07:29;10.17;;;6.17;;
67049;SDS011;53955;52.442;13.284;2022-12-07T04:09:56;10.63;;;5.97;;
67049;SDS011;53955;52.442;13.284;2022-12-07T04:12:23;12.77;;;6.13;;
67049;SDS011;53955;52.442;13.284;2022-12-07T04:14:50;11.40;;;6.07;;
67049;SDS011;53955;52.442;13.284;2022-12-07T04:17:18;13.13;;;7.20;;
67049;SDS011;53955;52.442;13.284;2022-12-07T04:19:44;11.80;;;6.37;;
67049;SDS011;53955;52.442;13.284;2022-12-07T04:22:11;12.23;;;6.80;;
67049;SDS011;53955;52.442;13.284;2022-12-07T04:24:38;11.27;;;6.43;;
67049;SDS011;53955;52.442;13.284;2022-12-07T04:27:05;14.70;;;7.87;;
67049;SDS011;53955;52.442;13.284;2022-12-07T04:29:31;10.93;;;5.40;;
67049;SDS011;53955;52.442;13.284;2022-12-07T04:31:58;14.03;;;7.70;;
67049;SDS011;53955;52.442;13.284;2022-12-07T04:34:26;15.07;;;8.00;;
67049;SDS011;53955;52.442;13.284;2022-12-07T04:36:52;12.87;;;7.53;;
67049;SDS011;53955;52.442;13.284;2022-12-07T04:39:20;12.77;;;7.53;;
67049;SDS011;53955;52.442;13.284;2022-12-07T04:41:49;14.17;;;7.77;;
67049;SDS011;53955;52.442;13.284;2022-12-07T04:44:16;14.53;;;8.47;;
67049;SDS011;53955;52.442;13.284;2022-12-07T04:46:43;15.20;;;7.80;;
67049;SDS011;53955;52.442;13.284;2022-12-07T04:49:10;15.63;;;8.60;;
67049;SDS011;53955;52.442;13.284;2022-12-07T04:51:39;15.23;;;8.00;;
67049;SDS011;53955;52.442;13.284;2022-12-07T04:54:06;14.97;;;8.00;;
67049;SDS011;53955;52.442;13.284;2022-12-07T04:56:32;14.93;;;8.23;;
67049;SDS011;53955;52.442;13.284;2022-12-07T04:59:00;16.17;;;8.90;;
67049;SDS011;53955;52.442;13.284;2022-12-07T05:01:28;16.30;;;9.20;;
67049;SDS011;53955;52.442;13.284;2022-12-07T05:03:54;13.43;;;8.43;;
67049;SDS011;53955;52.442;13.284;2022-12-07T05:06:21;15.30;;;7.87;;
67049;SDS011;53955;52.442;13.284;2022-12-07T05:08:49;19.27;;;9.50;;
67049;SDS011;53955;52.442;13.284;2022-12-07T05:11:16;17.67;;;9.60;;
67049;SDS011;53955;52.442;13.284;2022-12-07T05:13:57;20.60;;;8.97;;
67049;SDS011;53955;52.442;13.284;2022-12-07T05:16:23;17.57;;;9.37;;
67049;SDS011;53955;52.442;13.284;2022-12-07T05:18:50;15.93;;;9.10;;
67049;SDS011;53955;52.442;13.284;2022-12-07T05:21:16;22.77;;;10.10;;
67049;SDS011;53955;52.442;13.284;2022-12-07T05:23:43;19.13;;;10.03;;
67049;SDS011;53955;52.442;13.284;2022-12-07T05:26:11;19.90;;;10.10;;
67049;SDS011;53955;52.442;13.284;2022-12-07T05:28:38;17.73;;;8.97;;
67049;SDS011;53955;52.442;13.284;2022-12-07T05:31:04;17.30;;;9.73;;
67049;SDS011;53955;52.442;13.284;2022-12-07T05:33:31;20.63;;;9.90;;
67049;SDS011;53955;52.442;13.284;2022-12-07T05:35:57;26.47;;;11.37;;
67049;SDS011;53955;52.442;13.284;2022-12-07T05:38:30;18.40;;;10.37;;
67049;SDS011;53955;52.442;13.284;2022-12-07T05:40:59;18.90;;;9.30;;
67049;SDS011;53955;52.442;13.284;2022-12-07T05:43:28;18.97;;;10.17;;
67049;SDS011;53955;52.442;13.284;2022-12-07T05:45:55;17.00;;;9.53;;
67049;SDS011;53955;52.442;13.284;2022-12-07T05:48:22;19.57;;;11.20;;
67049;SDS011;53955;52.442;13.284;2022-12-07T05:50:49;22.97;;;10.53;;
67049;SDS011;53955;52.442;13.284;2022-12-07T05:53:16;19.87;;;10.30;;
67049;SDS011;53955;52.442;13.284;2022-12-07T05:55:42;19.63;;;10.90;;
67049;SDS011;53955;52.442;13.284;2022-12-07T05:58:09;22.13;;;10.77;;
67049;SDS011;53955;52.442;13.284;2022-12-07T06:00:55;17.00;;;9.60;;
67049;SDS011;53955;52.442;13.284;2022-12-07T06:03:22;22.90;;;11.00;;
67049;SDS011;53955;52.442;13.284;2022-12-07T06:05:48;19.87;;;10.63;;
67049;SDS011;53955;52.442;13.284;2022-12-07T06:08:15;19.90;;;11.50;;
67049;SDS011;53955;52.442;13.284;2022-12-07T06:10:41;19.17;;;10.23;;
67049;SDS011;53955;52.442;13.284;2022-12-07T06:13:08;19.93;;;10.50;;
67049;SDS011;53955;52.442;13.284;2022-12-07T06:15:35;19.40;;;10.70;;
67049;SDS011;53955;52.442;13.284;2022-12-07T06:18:03;23.00;;;11.13;;
67049;SDS011;53955;52.442;13.284;2022-12-07T06:20:30;21.80;;;11.30;;
67049;SDS011;53955;52.442;13.284;2022-12-07T06:22:56;20.73;;;11.30;;
67049;SDS011;53955;52.442;13.284;2022-12-07T06:25:23;23.47;;;11.90;;
67049;SDS011;53955;52.442;13.284;2022-12-07T06:27:50;24.63;;;12.00;;
67049;SDS011;53955;52.442;13.284;2022-12-07T06:30:16;20.40;;;10.33;;
67049;SDS011;53955;52.442;13.284;2022-12-07T06:32:43;22.67;;;11.47;;
67049;SDS011;53955;52.442;13.284;2022-12-07T06:35:11;25.00;;;11.27;;
67049;SDS011;53955;52.442;13.284;2022-12-07T06:37:37;19.87;;;10.37;;
67049;SDS011;53955;52.442;13.284;2022-12-07T06:40:04;22.97;;;11.37;;
67049;SDS011;53955;52.442;13.284;2022-12-07T06:42:32;21.83;;;11.10;;
67049;SDS011;53955;52.442;13.284;2022-12-07T06:44:58;19.27;;;10.77;;
67049;SDS011;53955;52.442;13.284;2022-12-07T06:47:25;22.20;;;11.67;;
67049;SDS011;53955;52.442;13.284;2022-12-07T06:49:51;21.97;;;11.07;;
67049;SDS011;53955;52.442;13.284;2022-12-07T06:52:19;25.47;;;11.43;;
67049;SDS011;53955;52.442;13.284;2022-12-07T06:54:46;24.60;;;11.87;;
67049;SDS011;53955;52.442;13.284;2022-12-07T06:57:12;22.63;;;11.37;;
67049;SDS011;53955;52.442;13.284;2022-12-07T06:59:39;19.80;;;10.77;;
67049;SDS011;53955;52.442;13.284;2022-12-07T07:02:05;20.47;;;11.37;;
67049;SDS011;53955;52.442;13.284;2022-12-07T07:04:33;22.30;;;10.83;;
67049;SDS011;53955;52.442;13.284;2022-12-07T07:07:00;20.23;;;11.03;;
67049;SDS011;53955;52.442;13.284;2022-12-07T07:09:28;20.17;;;10.60;;
67049;SDS011;53955;52.442;13.284;2022-12-07T07:11:54;20.87;;;11.27;;
67049;SDS011;53955;52.442;13.284;2022-12-07T07:14:21;20.27;;;11.10;;
67049;SDS011;53955;52.442;13.284;2022-12-07T07:16:47;20.77;;;11.17;;
67049;SDS011;53955;52.442;13.284;2022-12-07T07:19:14;19.43;;;11.10;;
67049;SDS011;53955;52.442;13.284;2022-12-07T07:21:40;21.20;;;11.23;;
67049;SDS011;53955;52.442;13.284;2022-12-07T07:24:07;22.20;;;11.33;;
67049;SDS011;53955;52.442;13.284;2022-12-07T07:26:35;20.93;;;10.60;;
67049;SDS011;53955;52.442;13.284;2022-12-07T07:29:01;23.67;;;10.63;;
67049;SDS011;53955;52.442;13.284;2022-12-07T07:31:28;21.87;;;10.07;;
67049;SDS011;53955;52.442;13.284;2022-12-07T07:33:55;21.57;;;10.10;;
67049;SDS011;53955;52.442;13.284;2022-12-07T07:36:21;22.13;;;10.70;;
67049;SDS011;53955;52.442;13.284;2022-12-07T07:38:48;20.80;;;10.40;;
67049;SDS011;53955;52.442;13.284;2022-12-07T07:41:14;19.50;;;10.27;;
67049;SDS011;53955;52.442;13.284;2022-12-07T07:43:42;18.60;;;9.83;;
67049;SDS011;53955;52.442;13.284;2022-12-07T07:46:09;18.70;;;9.63;;
67049;SDS011;53955;52.442;13.284;2022-12-07T07:48:35;16.37;;;9.60;;
67049;SDS011;53955;52.442;13.284;2022-12-07T07:51:04;18.00;;;9.67;;
67049;SDS011;53955;52.442;13.284;2022-12-07T07:53:31;16.07;;;8.80;;
67049;SDS011;53955;52.442;13.284;2022-12-07T07:55:58;13.87;;;8.60;;
67049;SDS011;53955;52.442;13.284;2022-12-07T07:58:24;16.87;;;8.00;;
67049;SDS011;53955;52.442;13.284;2022-12-07T08:00:52;18.13;;;8.20;;
67049;SDS011;53955;52.442;13.284;2022-12-07T08:03:19;16.47;;;8.40;;
67049;SDS011;53955;52.442;13.284;2022-12-07T08:05:46;14.73;;;8.60;;
67049;SDS011;53955;52.442;13.284;2022-12-07T08:08:12;20.43;;;9.00;;
67049;SDS011;53955;52.442;13.284;2022-12-07T08:10:39;19.50;;;7.93;;
67049;SDS011;53955;52.442;13.284;2022-12-07T08:13:05;17.27;;;7.37;;
67049;SDS011;53955;52.442;13.284;2022-12-07T08:15:39;12.10;;;7.27;;
67049;SDS011;53955;52.442;13.284;2022-12-07T08:18:08;12.37;;;6.97;;
67049;SDS011;53955;52.442;13.284;2022-12-07T08:20:34;10.67;;;5.90;;
67049;SDS011;53955;52.442;13.284;2022-12-07T08:23:02;10.47;;;5.70;;
67049;SDS011;53955;52.442;13.284;2022-12-07T08:25:29;8.43;;;5.30;;
67049;SDS011;53955;52.442;13.284;2022-12-07T08:27:56;8.87;;;5.13;;
67049;SDS011;53955;52.442;13.284;2022-12-07T08:30:22;8.23;;;4.63;;
67049;SDS011;53955;52.442;13.284;2022-12-07T08:32:49;9.80;;;4.87;;
67049;SDS011;53955;52.442;13.284;2022-12-07T08:35:17;6.90;;;4.80;;
67049;SDS011;53955;52.442;13.284;2022-12-07T08:37:44;7.87;;;4.80;;
67049;SDS011;53955;52.442;13.284;2022-12-07T08:40:11;6.93;;;4.50;;
67049;SDS011;53955;52.442;13.284;2022-12-07T08:42:40;6.67;;;4.10;;
67049;SDS011;53955;52.442;13.284;2022-12-07T08:45:07;6.57;;;4.10;;
67049;SDS011;53955;52.442;13.284;2022-12-07T08:47:36;7.70;;;4.50;;
67049;SDS011;53955;52.442;13.284;2022-12-07T08:50:06;6.97;;;4.10;;
67049;SDS011;53955;52.442;13.284;2022-12-07T08:52:37;6.80;;;4.30;;
67049;SDS011;53955;52.442;13.284;2022-12-07T08:55:06;6.60;;;3.93;;
67049;SDS011;53955;52.442;13.284;2022-12-07T08:57:35;6.30;;;3.67;;
67049;SDS011;53955;52.442;13.284;2022-12-07T09:00:02;4.80;;;3.17;;
67049;SDS011;53955;52.442;13.284;2022-12-07T09:02:30;4.50;;;3.20;;
67049;SDS011;53955;52.442;13.284;2022-12-07T09:04:57;5.50;;;3.20;;
67049;SDS011;53955;52.442;13.284;2022-12-07T09:07:23;5.33;;;2.83;;
67049;SDS011;53955;52.442;13.284;2022-12-07T09:09:52;3.30;;;2.53;;
67049;SDS011;53955;52.442;13.284;2022-12-07T09:12:19;3.50;;;2.40;;
67049;SDS011;53955;52.442;13.284;2022-12-07T09:14:45;4.47;;;2.70;;
67049;SDS011;53955;52.442;13.284;2022-12-07T09:17:12;3.30;;;2.60;;
67049;SDS011;53955;52.442;13.284;2022-12-07T09:19:39;2.87;;;2.20;;
67049;SDS011;53955;52.442;13.284;2022-12-07T09:22:07;2.90;;;2.30;;
67049;SDS011;53955;52.442;13.284;2022-12-07T09:24:34;3.47;;;2.43;;
67049;SDS011;53955;52.442;13.284;2022-12-07T09:27:02;3.40;;;2.40;;
67049;SDS011;53955;52.442;13.284;2022-12-07T09:29:29;2.97;;;2.20;;
67049;SDS011;53955;52.442;13.284;2022-12-07T09:31:55;3.33;;;2.63;;
67049;SDS011;53955;52.442;13.284;2022-12-07T09:34:22;2.70;;;2.30;;
67049;SDS011;53955;52.442;13.284;2022-12-07T09:36:48;3.53;;;2.37;;
67049;SDS011;53955;52.442;13.284;2022-12-07T09:39:15;2.40;;;2.10;;
67049;SDS011;53955;52.442;13.284;2022-12-07T09:41:42;2.70;;;2.10;;
67049;SDS011;53955;52.442;13.284;2022-12-07T09:44:12;3.83;;;2.53;;
67049;SDS011;53955;52.442;13.284;2022-12-07T09:46:41;3.67;;;2.40;;
67049;SDS011;53955;52.442;13.284;2022-12-07T09:49:10;2.27;;;2.03;;
67049;SDS011;53955;52.442;13.284;2022-12-07T09:51:39;3.00;;;2.40;;
67049;SDS011;53955;52.442;13.284;2022-12-07T09:54:05;3.63;;;2.60;;
67049;SDS011;53955;52.442;13.284;2022-12-07T09:56:35;3.00;;;2.30;;
67049;SDS011;53955;52.442;13.284;2022-12-07T09:59:01;2.77;;;2.07;;
67049;SDS011;53955;52.442;13.284;2022-12-07T10:01:30;3.90;;;2.40;;
67049;SDS011;53955;52.442;13.284;2022-12-07T10:04:00;2.60;;;2.00;;
67049;SDS011;53955;52.442;13.284;2022-12-07T10:06:35;2.70;;;2.10;;
67049;SDS011;53955;52.442;13.284;2022-12-07T10:09:01;2.60;;;2.10;;
67049;SDS011;53955;52.442;13.284;2022-12-07T10:11:28;3.10;;;2.20;;
67049;SDS011;53955;52.442;13.284;2022-12-07T10:13:54;4.47;;;2.47;;
67049;SDS011;53955;52.442;13.284;2022-12-07T10:16:39;3.40;;;2.37;;
67049;SDS011;53955;52.442;13.284;2022-12-07T10:19:22;4.30;;;2.40;;
67049;SDS011;53955;52.442;13.284;2022-12-07T10:22:00;4.47;;;2.30;;
67049;SDS011;53955;52.442;13.284;2022-12-07T10:24:29;6.97;;;2.50;;
67049;SDS011;53955;52.442;13.284;2022-12-07T10:26:56;3.50;;;2.43;;
67049;SDS011;53955;52.442;13.284;2022-12-07T10:29:24;4.90;;;2.50;;
67049;SDS011;53955;52.442;13.284;2022-12-07T10:31:56;3.97;;;2.50;;
67049;SDS011;53955;52.442;13.284;2022-12-07T10:34:26;3.77;;;2.57;;
67049;SDS011;53955;52.442;13.284;2022-12-07T10:37:06;6.43;;;3.30;;
67049;SDS011;53955;52.442;13.284;2022-12-07T10:39:41;3.67;;;2.83;;
67049;SDS011;53955;52.442;13.284;2022-12-07T10:42:15;4.00;;;2.70;;
67049;SDS011;53955;52.442;13.284;2022-12-07T10:44:43;4.37;;;2.77;;
67049;SDS011;53955;52.442;13.284;2022-12-07T10:47:21;5.23;;;3.07;;
67049;SDS011;53955;52.442;13.284;2022-12-07T10:50:07;5.83;;;3.27;;
67049;SDS011;53955;52.442;13.284;2022-12-07T10:53:08;5.00;;;2.90;;
67049;SDS011;53955;52.442;13.284;2022-12-07T10:55:54;4.50;;;2.90;;
67049;SDS011;53955;52.442;13.284;2022-12-07T10:58:37;4.47;;;2.73;;
67049;SDS011;53955;52.442;13.284;2022-12-07T11:01:18;4.70;;;3.40;;
67049;SDS011;53955;52.442;13.284;2022-12-07T11:03:59;4.93;;;3.23;;
67049;SDS011;53955;52.442;13.284;2022-12-07T11:06:39;4.87;;;3.43;;
67049;SDS011;53955;52.442;13.284;2022-12-07T11:12:20;4.50;;;3.50;;
67049;SDS011;53955;52.442;13.284;2022-12-07T11:14:56;6.80;;;3.63;;
67049;SDS011;53955;52.442;13.284;2022-12-07T11:17:30;5.83;;;3.30;;
67049;SDS011;53955;52.442;13.284;2022-12-07T11:20:05;5.37;;;3.47;;
67049;SDS011;53955;52.442;13.284;2022-12-07T11:22:45;6.07;;;3.03;;
67049;SDS011;53955;52.442;13.284;2022-12-07T11:25:20;8.00;;;3.50;;
67049;SDS011;53955;52.442;13.284;2022-12-07T11:28:00;4.77;;;3.47;;
67049;SDS011;53955;52.442;13.284;2022-12-07T11:30:38;6.53;;;3.50;;
67049;SDS011;53955;52.442;13.284;2022-12-07T11:33:15;8.83;;;3.67;;
67049;SDS011;53955;52.442;13.284;2022-12-07T11:35:57;7.07;;;3.63;;
67049;SDS011;53955;52.442;13.284;2022-12-07T11:38:33;4.40;;;3.20;;
67049;SDS011;53955;52.442;13.284;2022-12-07T11:41:08;5.60;;;3.37;;
67049;SDS011;53955;52.442;13.284;2022-12-07T11:43:50;5.80;;;3.17;;
67049;SDS011;53955;52.442;13.284;2022-12-07T11:46:23;4.47;;;3.10;;
67049;SDS011;53955;52.442;13.284;2022-12-07T11:48:52;4.67;;;2.93;;
67049;SDS011;53955;52.442;13.284;2022-12-07T11:51:28;5.50;;;2.87;;
67049;SDS011;53955;52.442;13.284;2022-12-07T11:53:59;6.33;;;2.97;;
67049;SDS011;53955;52.442;13.284;2022-12-07T11:56:29;4.53;;;3.00;;
67049;SDS011;53955;52.442;13.284;2022-12-07T11:59:02;3.53;;;2.67;;
67049;SDS011;53955;52.442;13.284;2022-12-07T12:01:37;4.93;;;2.67;;
67049;SDS011;53955;52.442;13.284;2022-12-07T12:04:19;4.80;;;3.03;;
67049;SDS011;53955;52.442;13.284;2022-12-07T12:06:54;10.30;;;3.20;;
67049;SDS011;53955;52.442;13.284;2022-12-07T12:09:21;8.13;;;3.40;;
67049;SDS011;53955;52.442;13.284;2022-12-07T12:11:58;4.90;;;2.97;;
67049;SDS011;53955;52.442;13.284;2022-12-07T12:17:27;9.33;;;3.17;;
67049;SDS011;53955;52.442;13.284;2022-12-07T12:20:15;5.57;;;3.20;;
67049;SDS011;53955;52.442;13.284;2022-12-07T12:22:51;4.63;;;2.90;;
67049;SDS011;53955;52.442;13.284;2022-12-07T12:25:23;7.93;;;2.87;;
67049;SDS011;53955;52.442;13.284;2022-12-07T12:27:52;5.77;;;2.90;;
67049;SDS011;53955;52.442;13.284;2022-12-07T12:30:25;8.93;;;3.07;;
67049;SDS011;53955;52.442;13.284;2022-12-07T12:33:01;7.17;;;2.83;;
67049;SDS011;53955;52.442;13.284;2022-12-07T12:35:31;7.37;;;2.63;;
67049;SDS011;53955;52.442;13.284;2022-12-07T12:41:02;5.27;;;2.67;;
67049;SDS011;53955;52.442;13.284;2022-12-07T12:43:46;4.10;;;3.00;;
67049;SDS011;53955;52.442;13.284;2022-12-07T12:46:35;5.27;;;2.80;;
67049;SDS011;53955;52.442;13.284;2022-12-07T12:49:33;4.30;;;2.30;;
67049;SDS011;53955;52.442;13.284;2022-12-07T12:55:16;7.60;;;2.97;;
67049;SDS011;53955;52.442;13.284;2022-12-07T12:57:47;6.40;;;2.67;;
67049;SDS011;53955;52.442;13.284;2022-12-07T13:00:38;6.27;;;2.23;;
67049;SDS011;53955;52.442;13.284;2022-12-07T13:03:17;3.27;;;2.27;;
67049;SDS011;53955;52.442;13.284;2022-12-07T13:05:53;7.47;;;3.00;;
67049;SDS011;53955;52.442;13.284;2022-12-07T13:08:43;4.27;;;2.30;;
67049;SDS011;53955;52.442;13.284;2022-12-07T13:11:17;8.00;;;2.80;;
67049;SDS011;53955;52.442;13.284;2022-12-07T13:13:47;5.77;;;2.43;;
67049;SDS011;53955;52.442;13.284;2022-12-07T13:16:36;2.83;;;2.00;;
67049;SDS011;53955;52.442;13.284;2022-12-07T13:22:34;4.17;;;1.90;;
67049;SDS011;53955;52.442;13.284;2022-12-07T13:25:09;4.07;;;2.30;;
67049;SDS011;53955;52.442;13.284;2022-12-07T13:27:39;6.23;;;2.30;;
67049;SDS011;53955;52.442;13.284;2022-12-07T13:30:11;2.93;;;2.00;;
67049;SDS011;53955;52.442;13.284;2022-12-07T13:32:41;5.47;;;2.00;;
67049;SDS011;53955;52.442;13.284;2022-12-07T13:38:04;4.93;;;2.03;;
67049;SDS011;53955;52.442;13.284;2022-12-07T13:40:41;5.77;;;2.00;;
67049;SDS011;53955;52.442;13.284;2022-12-07T13:43:12;4.97;;;1.90;;
67049;SDS011;53955;52.442;13.284;2022-12-07T13:45:42;3.63;;;2.00;;
67049;SDS011;53955;52.442;13.284;2022-12-07T13:48:16;3.70;;;2.30;;
67049;SDS011;53955;52.442;13.284;2022-12-07T13:50:52;5.43;;;2.10;;
67049;SDS011;53955;52.442;13.284;2022-12-07T13:53:19;2.60;;;1.70;;
67049;SDS011;53955;52.442;13.284;2022-12-07T13:55:46;4.13;;;2.20;;
67049;SDS011;53955;52.442;13.284;2022-12-07T13:58:13;3.63;;;1.83;;
67049;SDS011;53955;52.442;13.284;2022-12-07T14:00:40;4.47;;;2.30;;
67049;SDS011;53955;52.442;13.284;2022-12-07T14:06:05;4.33;;;2.43;;
67049;SDS011;53955;52.442;13.284;2022-12-07T14:08:38;4.87;;;1.97;;
67049;SDS011;53955;52.442;13.284;2022-12-07T14:11:05;3.87;;;2.60;;
67049;SDS011;53955;52.442;13.284;2022-12-07T14:13:36;4.37;;;2.60;;
67049;SDS011;53955;52.442;13.284;2022-12-07T14:16:16;3.73;;;2.30;;
67049;SDS011;53955;52.442;13.284;2022-12-07T14:18:49;4.33;;;2.40;;
67049;SDS011;53955;52.442;13.284;2022-12-07T14:21:16;4.87;;;2.37;;
67049;SDS011;53955;52.442;13.284;2022-12-07T14:23:44;4.80;;;2.33;;
67049;SDS011;53955;52.442;13.284;2022-12-07T14:26:12;4.47;;;2.40;;
67049;SDS011;53955;52.442;13.284;2022-12-07T14:28:39;7.80;;;2.50;;
67049;SDS011;53955;52.442;13.284;2022-12-07T14:31:10;4.43;;;2.70;;
67049;SDS011;53955;52.442;13.284;2022-12-07T14:33:40;5.97;;;2.33;;
67049;SDS011;53955;52.442;13.284;2022-12-07T14:36:08;7.30;;;2.90;;
67049;SDS011;53955;52.442;13.284;2022-12-07T14:38:36;4.40;;;2.53;;
67049;SDS011;53955;52.442;13.284;2022-12-07T14:41:02;4.77;;;2.60;;
67049;SDS011;53955;52.442;13.284;2022-12-07T14:43:47;5.67;;;2.50;;
67049;SDS011;53955;52.442;13.284;2022-12-07T14:46:14;5.03;;;2.57;;
67049;SDS011;53955;52.442;13.284;2022-12-07T14:48:42;3.97;;;2.37;;
67049;SDS011;53955;52.442;13.284;2022-12-07T14:51:09;6.73;;;2.70;;
67049;SDS011;53955;52.442;13.284;2022-12-07T14:53:39;7.17;;;2.37;;
67049;SDS011;53955;52.442;13.284;2022-12-07T14:56:08;5.10;;;2.23;;
67049;SDS011;53955;52.442;13.284;2022-12-07T14:58:35;4.27;;;2.30;;
67049;SDS011;53955;52.442;13.284;2022-12-07T15:01:01;4.20;;;2.40;;
67049;SDS011;53955;52.442;13.284;2022-12-07T15:03:28;5.07;;;2.30;;
67049;SDS011;53955;52.442;13.284;2022-12-07T15:05:57;4.23;;;2.40;;
67049;SDS011;53955;52.442;13.284;2022-12-07T15:08:23;4.23;;;2.20;;
67049;SDS011;53955;52.442;13.284;2022-12-07T15:10:50;7.23;;;2.50;;
67049;SDS011;53955;52.442;13.284;2022-12-07T15:13:17;9.53;;;2.40;;
67049;SDS011;53955;52.442;13.284;2022-12-07T15:16:01;5.20;;;2.20;;
67049;SDS011;53955;52.442;13.284;2022-12-07T15:18:28;6.10;;;2.43;;
67049;SDS011;53955;52.442;13.284;2022-12-07T15:20:54;5.80;;;2.63;;